createdAt,value
2023-04-27T00:00:31.247Z,109.19
2023-04-27T00:01:31.228Z,110.11
2023-04-27T00:02:31.320Z,107.85
2023-04-27T00:03:31.402Z,110.30
2023-04-27T00:04:31.363Z,108.36
2023-04-27T00:05:31.316Z,110.34
2023-04-27T00:06:31.233Z,104.61
2023-04-27T00:07:31.251Z,106.41
2023-04-27T00:08:31.241Z,109.35
2023-04-27T00:09:31.249Z,105.39
2023-04-27T00:10:31.234Z,107.54
2023-04-27T00:11:31.257Z,104.63
2023-04-27T00:12:31.279Z,105.47
2023-04-27T00:13:31.293Z,110.85
2023-04-27T00:14:31.305Z,109.61
2023-04-27T00:15:31.285Z,107.84
2023-04-27T00:16:31.336Z,108.02
2023-04-27T00:17:31.345Z,105.67
2023-04-27T00:18:31.325Z,106.57
2023-04-27T00:19:31.354Z,103.79
2023-04-27T00:20:31.318Z,106.32
2023-04-27T00:21:31.328Z,109.75
2023-04-27T00:22:31.330Z,107.15
2023-04-27T00:23:31.350Z,104.65
2023-04-27T00:24:31.321Z,105.01
2023-04-27T00:25:31.332Z,102.46
2023-04-27T00:26:31.318Z,103.07
2023-04-27T00:27:31.336Z,100.84
2023-04-27T00:28:31.360Z,106.00
2023-04-27T00:29:31.333Z,107.62
2023-04-27T00:30:31.353Z,105.49
2023-04-27T00:31:31.370Z,106.86
2023-04-27T00:32:31.385Z,105.26
2023-04-27T00:33:31.359Z,106.41
2023-04-27T00:34:31.971Z,104.29
2023-04-27T00:35:31.358Z,104.35
2023-04-27T00:36:31.370Z,102.83
2023-04-27T00:37:31.348Z,104.25
2023-04-27T00:38:31.351Z,101.72
2023-04-27T00:39:31.352Z,106.99
2023-04-27T00:40:31.382Z,101.04
2023-04-27T00:41:31.363Z,105.01
2023-04-27T00:42:31.355Z,104.23
2023-04-27T00:43:31.369Z,104.33
2023-04-27T00:44:31.364Z,104.76
2023-04-27T00:45:31.475Z,103.78
2023-04-27T00:46:31.499Z,105.03
2023-04-27T00:47:31.452Z,102.76
2023-04-27T00:48:31.399Z,103.23
2023-04-27T00:49:31.419Z,104.09
2023-04-27T00:50:31.398Z,100.95
2023-04-27T00:51:31.396Z,105.96
2023-04-27T00:52:31.401Z,100.10
2023-04-27T00:53:31.351Z,103.69
2023-04-27T00:54:31.385Z,103.54
2023-04-27T00:55:31.405Z,98.95
2023-04-27T00:56:31.384Z,100.92
2023-04-27T00:57:31.384Z,102.20
2023-04-27T00:58:31.380Z,103.83
2023-04-27T00:59:31.413Z,102.26
2023-04-27T01:00:31.417Z,101.59
2023-04-27T01:01:31.499Z,102.75
2023-04-27T01:02:31.546Z,100.34
2023-04-27T01:03:31.580Z,98.48
2023-04-27T01:04:31.624Z,100.03
2023-04-27T01:05:32.677Z,100.96
2023-04-27T01:06:31.446Z,101.88
2023-04-27T01:07:31.503Z,101.58
2023-04-27T01:08:31.477Z,101.46
2023-04-27T01:09:31.467Z,101.76
2023-04-27T01:10:31.474Z,101.49
2023-04-27T01:11:31.480Z,101.21
2023-04-27T01:12:31.464Z,99.69
2023-04-27T01:13:31.492Z,100.05
2023-04-27T01:14:31.519Z,101.67
2023-04-27T01:15:31.516Z,100.97
2023-04-27T01:16:31.548Z,99.49
2023-04-27T01:17:31.565Z,102.23
2023-04-27T01:18:31.552Z,95.86
2023-04-27T01:19:31.549Z,99.99
2023-04-27T01:20:31.572Z,104.52
2023-04-27T01:21:31.560Z,99.78
2023-04-27T01:22:31.554Z,94.63
2023-04-27T01:23:31.573Z,98.29
2023-04-27T01:24:31.548Z,97.65
2023-04-27T01:25:31.566Z,98.74
2023-04-27T01:26:31.566Z,98.72
2023-04-27T01:27:31.530Z,97.33
2023-04-27T01:28:31.523Z,94.45
2023-04-27T01:29:31.559Z,95.77
2023-04-27T01:30:31.577Z,98.92
2023-04-27T01:31:31.574Z,96.08
2023-04-27T01:32:31.608Z,99.39
2023-04-27T01:33:31.533Z,97.89
2023-04-27T01:34:31.548Z,97.29
2023-04-27T01:35:31.572Z,98.71
2023-04-27T01:36:31.544Z,99.34
2023-04-27T01:37:31.525Z,98.88
2023-04-27T01:38:31.532Z,94.40
2023-04-27T01:39:31.528Z,94.68
2023-04-27T01:40:31.557Z,94.16
2023-04-27T01:41:31.538Z,98.63
2023-04-27T01:42:31.534Z,97.92
2023-04-27T01:43:31.575Z,95.71
2023-04-27T01:44:31.566Z,96.10
2023-04-27T01:45:31.640Z,97.00
2023-04-27T01:46:31.564Z,95.64
2023-04-27T01:47:31.580Z,91.70
2023-04-27T01:48:31.579Z,95.92
2023-04-27T01:49:33.482Z,91.75
2023-04-27T01:50:31.578Z,96.00
2023-04-27T01:51:31.558Z,97.89
2023-04-27T01:52:31.575Z,94.74
2023-04-27T01:53:31.593Z,95.27
2023-04-27T01:54:31.561Z,95.83
2023-04-27T01:55:31.554Z,93.64
2023-04-27T01:56:31.581Z,95.20
2023-04-27T01:57:31.551Z,92.79
2023-04-27T01:58:31.590Z,91.91
2023-04-27T01:59:31.616Z,93.32
2023-04-27T02:00:31.604Z,95.72
2023-04-27T02:01:31.662Z,94.36
2023-04-27T02:02:31.749Z,91.88
2023-04-27T02:03:31.693Z,94.87
2023-04-27T02:04:31.744Z,96.30
2023-04-27T02:05:31.607Z,92.59
2023-04-27T02:06:31.627Z,92.53
2023-04-27T02:07:31.605Z,94.67
2023-04-27T02:08:31.620Z,94.27
2023-04-27T02:09:31.652Z,92.53
2023-04-27T02:10:31.656Z,89.64
2023-04-27T02:11:31.636Z,91.82
2023-04-27T02:12:31.634Z,92.18
2023-04-27T02:13:31.665Z,86.98
2023-04-27T02:14:31.671Z,92.51
2023-04-27T02:15:31.666Z,91.98
2023-04-27T02:16:31.667Z,92.43
2023-04-27T02:17:31.677Z,91.50
2023-04-27T02:18:31.646Z,90.50
2023-04-27T02:19:31.669Z,92.45
2023-04-27T02:20:31.639Z,87.77
2023-04-27T02:21:31.628Z,90.83
2023-04-27T02:22:31.632Z,87.75
2023-04-27T02:23:31.627Z,92.62
2023-04-27T02:24:31.620Z,83.89
2023-04-27T02:25:31.625Z,85.79
2023-04-27T02:26:31.660Z,89.82
2023-04-27T02:27:31.705Z,91.74
2023-04-27T02:28:31.640Z,90.41
2023-04-27T02:29:31.666Z,88.56
2023-04-27T02:30:31.653Z,91.41
2023-04-27T02:31:31.652Z,87.64
2023-04-27T02:32:31.676Z,88.23
2023-04-27T02:33:31.650Z,88.78
2023-04-27T02:34:31.654Z,91.40
2023-04-27T02:35:31.672Z,89.55
2023-04-27T02:36:31.681Z,90.03
2023-04-27T02:37:31.681Z,89.70
2023-04-27T02:38:31.628Z,88.36
2023-04-27T02:39:31.630Z,89.23
2023-04-27T02:40:31.697Z,91.67
2023-04-27T02:41:31.669Z,87.80
2023-04-27T02:42:31.692Z,83.72
2023-04-27T02:43:31.674Z,86.83
2023-04-27T02:44:32.491Z,85.20
2023-04-27T02:45:31.713Z,79.04
2023-04-27T02:46:31.759Z,86.07
2023-04-27T02:47:31.786Z,88.06
2023-04-27T02:48:31.701Z,83.06
2023-04-27T02:49:31.755Z,83.69
2023-04-27T02:50:31.774Z,87.48
2023-04-27T02:51:32.747Z,82.12
2023-04-27T02:52:31.731Z,84.52
2023-04-27T02:53:31.738Z,84.94
2023-04-27T02:54:31.751Z,87.59
2023-04-27T02:55:31.746Z,83.86
2023-04-27T02:56:31.739Z,85.83
2023-04-27T02:57:31.750Z,85.20
2023-04-27T02:58:31.724Z,84.69
2023-04-27T02:59:31.808Z,85.47
2023-04-27T03:00:31.752Z,85.18
2023-04-27T03:01:31.797Z,84.18
2023-04-27T03:02:31.819Z,86.65
2023-04-27T03:03:31.884Z,84.52
2023-04-27T03:04:31.849Z,85.91
2023-04-27T03:05:31.974Z,83.94
2023-04-27T03:06:31.769Z,85.20
2023-04-27T03:07:31.801Z,84.81
2023-04-27T03:08:31.809Z,83.76
2023-04-27T03:09:31.795Z,82.76
2023-04-27T03:10:31.796Z,85.33
2023-04-27T03:11:31.799Z,82.08
2023-04-27T03:12:31.796Z,84.39
2023-04-27T03:13:31.782Z,82.59
2023-04-27T03:14:31.821Z,84.05
2023-04-27T03:15:31.838Z,83.50
2023-04-27T03:16:31.857Z,83.37
2023-04-27T03:17:31.933Z,85.38
2023-04-27T03:18:31.845Z,83.50
2023-04-27T03:19:31.863Z,82.85
2023-04-27T03:20:31.835Z,82.19
2023-04-27T03:21:31.888Z,82.53
2023-04-27T03:22:31.856Z,81.31
2023-04-27T03:23:31.839Z,79.73
2023-04-27T03:24:31.859Z,81.72
2023-04-27T03:25:31.931Z,83.04
2023-04-27T03:26:31.901Z,80.22
2023-04-27T03:27:31.889Z,82.81
2023-04-27T03:28:31.863Z,82.45
2023-04-27T03:29:31.878Z,84.09
2023-04-27T03:30:31.894Z,79.74
2023-04-27T03:31:31.990Z,74.38
2023-04-27T03:32:31.971Z,83.03
2023-04-27T03:33:31.922Z,76.53
2023-04-27T03:34:31.934Z,80.64
2023-04-27T03:35:31.954Z,81.47
2023-04-27T03:36:31.970Z,82.52
2023-04-27T03:37:31.939Z,80.79
2023-04-27T03:38:31.961Z,77.77
2023-04-27T03:39:31.966Z,80.63
2023-04-27T03:40:31.974Z,79.14
2023-04-27T03:41:31.962Z,79.90
2023-04-27T03:42:31.992Z,79.24
2023-04-27T03:43:31.980Z,80.62
2023-04-27T03:44:31.998Z,76.08
2023-04-27T03:45:31.991Z,79.06
2023-04-27T03:46:32.055Z,78.99
2023-04-27T03:47:32.008Z,79.43
2023-04-27T03:48:32.046Z,79.12
2023-04-27T03:49:32.002Z,78.18
2023-04-27T03:50:32.021Z,78.17
2023-04-27T03:51:33.032Z,78.35
2023-04-27T03:52:32.036Z,78.91
2023-04-27T03:53:32.043Z,76.51
2023-04-27T03:54:32.030Z,76.40
2023-04-27T03:55:32.027Z,73.95
2023-04-27T03:56:32.003Z,76.76
2023-04-27T03:57:32.049Z,75.81
2023-04-27T03:58:32.071Z,77.61
2023-04-27T03:59:32.077Z,75.04
2023-04-27T04:00:32.057Z,76.86
2023-04-27T04:01:32.074Z,77.97
2023-04-27T04:02:32.186Z,78.47
2023-04-27T04:03:32.190Z,77.18
2023-04-27T04:04:32.270Z,76.70
2023-04-27T04:05:32.098Z,76.51
2023-04-27T04:06:32.129Z,75.29
2023-04-27T04:07:32.124Z,75.55
2023-04-27T04:08:32.158Z,75.35
2023-04-27T04:09:32.135Z,77.11
2023-04-27T04:10:32.143Z,71.78
2023-04-27T04:11:32.146Z,76.71
2023-04-27T04:12:32.148Z,76.84
2023-04-27T04:13:32.142Z,75.36
2023-04-27T04:14:32.124Z,76.01
2023-04-27T04:15:32.167Z,76.43
2023-04-27T04:16:32.174Z,76.19
2023-04-27T04:17:32.198Z,75.99
2023-04-27T04:18:32.179Z,76.12
2023-04-27T04:19:32.135Z,73.54
2023-04-27T04:20:32.157Z,73.13
2023-04-27T04:21:32.198Z,74.55
2023-04-27T04:22:32.188Z,75.10
2023-04-27T04:23:32.200Z,74.03
2023-04-27T04:24:32.195Z,72.48
2023-04-27T04:25:32.205Z,73.58
2023-04-27T04:26:32.218Z,74.36
2023-04-27T04:27:32.209Z,75.45
2023-04-27T04:28:32.223Z,75.20
2023-04-27T04:29:32.227Z,74.23
2023-04-27T04:30:32.235Z,71.65
2023-04-27T04:31:32.245Z,74.30
2023-04-27T04:32:32.226Z,72.00
2023-04-27T04:33:32.228Z,74.21
2023-04-27T04:34:32.193Z,74.30
2023-04-27T04:35:32.200Z,72.56
2023-04-27T04:36:32.222Z,68.84
2023-04-27T04:37:32.198Z,74.71
2023-04-27T04:38:32.239Z,71.78
2023-04-27T04:39:32.232Z,74.06
2023-04-27T04:40:32.249Z,71.90
2023-04-27T04:41:32.332Z,73.52
2023-04-27T04:42:32.221Z,72.05
2023-04-27T04:43:32.216Z,71.60
2023-04-27T04:44:32.273Z,72.04
2023-04-27T04:45:32.278Z,72.13
2023-04-27T04:46:32.315Z,67.43
2023-04-27T04:47:32.412Z,71.77
2023-04-27T04:48:32.379Z,74.29
2023-04-27T04:49:32.301Z,66.18
2023-04-27T04:50:32.343Z,71.86
2023-04-27T04:51:32.355Z,74.39
2023-04-27T04:52:34.056Z,73.44
2023-04-27T04:53:32.334Z,72.85
2023-04-27T04:54:32.363Z,68.37
2023-04-27T04:55:32.365Z,70.57
2023-04-27T04:56:32.390Z,68.90
2023-04-27T04:57:32.379Z,70.62
2023-04-27T04:58:32.374Z,70.59
2023-04-27T04:59:32.398Z,70.31
2023-04-27T05:00:32.372Z,71.63
2023-04-27T05:01:32.432Z,71.76
2023-04-27T05:02:32.499Z,70.09
2023-04-27T05:03:32.739Z,69.47
2023-04-27T05:04:32.592Z,73.09
2023-04-27T05:05:32.430Z,71.33
2023-04-27T05:06:32.425Z,71.71
2023-04-27T05:07:32.433Z,68.01
2023-04-27T05:08:32.447Z,72.44
2023-04-27T05:09:32.436Z,70.71
2023-04-27T05:10:32.466Z,72.04
2023-04-27T05:11:32.454Z,72.83
2023-04-27T05:12:32.451Z,69.36
2023-04-27T05:13:32.465Z,66.18
2023-04-27T05:14:32.464Z,69.29
2023-04-27T05:15:32.432Z,70.72
2023-04-27T05:16:32.500Z,70.17
2023-04-27T05:17:32.481Z,67.60
2023-04-27T05:18:32.464Z,68.15
2023-04-27T05:19:32.495Z,68.25
2023-04-27T05:20:32.477Z,69.16
2023-04-27T05:21:32.463Z,67.60
2023-04-27T05:22:32.477Z,70.79
2023-04-27T05:23:32.468Z,70.39
2023-04-27T05:24:32.475Z,67.87
2023-04-27T05:25:32.513Z,68.78
2023-04-27T05:26:32.471Z,68.98
2023-04-27T05:27:32.510Z,67.83
2023-04-27T05:28:32.465Z,70.07
2023-04-27T05:29:32.516Z,68.69
2023-04-27T05:30:32.461Z,67.51
2023-04-27T05:31:32.542Z,68.53
2023-04-27T05:32:32.507Z,70.85
2023-04-27T05:33:32.492Z,67.86
2023-04-27T05:34:32.497Z,69.37
2023-04-27T05:35:32.519Z,67.82
2023-04-27T05:36:32.516Z,68.97
2023-04-27T05:37:32.549Z,69.11
2023-04-27T05:38:32.491Z,68.23
2023-04-27T05:39:32.534Z,68.60
2023-04-27T05:40:32.524Z,68.60
2023-04-27T05:41:32.551Z,66.45
2023-04-27T05:42:33.061Z,63.30
2023-04-27T05:43:32.544Z,69.43
2023-04-27T05:44:32.585Z,68.52
2023-04-27T05:45:32.624Z,68.53
2023-04-27T05:46:32.608Z,68.63
2023-04-27T05:47:32.672Z,67.84
2023-04-27T05:48:32.636Z,68.01
2023-04-27T05:49:32.610Z,68.72
2023-04-27T05:50:32.673Z,69.26
2023-04-27T05:51:32.691Z,62.51
2023-04-27T05:52:33.046Z,66.47
2023-04-27T05:53:32.688Z,68.15
2023-04-27T05:54:32.822Z,67.03
2023-04-27T05:55:32.758Z,67.06
2023-04-27T05:56:32.755Z,68.84
2023-04-27T05:57:33.055Z,80.70
2023-04-27T05:58:32.800Z,87.41
2023-04-27T05:59:32.800Z,91.92
2023-04-27T06:00:32.803Z,94.92
2023-04-27T06:01:32.797Z,95.38
2023-04-27T06:02:32.975Z,105.21
2023-04-27T06:03:32.939Z,103.62
2023-04-27T06:04:32.908Z,121.81
2023-04-27T06:05:32.991Z,126.93
2023-04-27T06:06:33.008Z,136.81
2023-04-27T06:07:33.088Z,137.83
2023-04-27T06:08:33.100Z,144.42
2023-04-27T06:09:33.156Z,148.54
2023-04-27T06:10:33.226Z,146.07
2023-04-27T06:11:33.282Z,149.48
2023-04-27T06:12:33.341Z,155.06
2023-04-27T06:13:33.396Z,155.48
2023-04-27T06:14:33.480Z,163.57
2023-04-27T06:15:33.548Z,166.69
2023-04-27T06:16:33.574Z,164.00
2023-04-27T06:17:33.614Z,175.20
2023-04-27T06:18:33.624Z,174.41
2023-04-27T06:19:33.665Z,177.19
2023-04-27T06:20:33.713Z,191.02
2023-04-27T06:21:33.759Z,205.02
2023-04-27T06:22:33.788Z,210.17
2023-04-27T06:23:33.824Z,214.48
2023-04-27T06:24:33.878Z,219.81
2023-04-27T06:25:33.909Z,223.66
2023-04-27T06:26:33.937Z,234.88
2023-04-27T06:27:33.933Z,239.94
2023-04-27T06:28:33.933Z,247.20
2023-04-27T06:29:33.981Z,250.00
2023-04-27T06:30:34.034Z,248.37
2023-04-27T06:31:34.013Z,250.00
2023-04-27T06:32:34.044Z,250.00
2023-04-27T06:33:34.040Z,248.78
2023-04-27T06:34:34.051Z,246.11
2023-04-27T06:35:34.104Z,243.10
2023-04-27T06:36:34.113Z,243.97
2023-04-27T06:37:34.566Z,246.05
2023-04-27T06:38:34.193Z,245.98
2023-04-27T06:39:34.239Z,245.82
2023-04-27T06:40:34.288Z,241.69
2023-04-27T06:41:34.274Z,244.57
2023-04-27T06:42:34.446Z,243.37
2023-04-27T06:43:34.375Z,243.75
2023-04-27T06:44:34.433Z,236.88
2023-04-27T06:45:34.445Z,247.08
2023-04-27T06:46:34.595Z,242.68
2023-04-27T06:47:34.562Z,239.55
2023-04-27T06:48:34.584Z,238.01
2023-04-27T06:49:34.664Z,235.69
2023-04-27T06:50:34.685Z,241.24
2023-04-27T06:51:34.755Z,235.19
2023-04-27T06:52:44.120Z,232.15
2023-04-27T06:53:34.801Z,232.76
2023-04-27T06:54:35.016Z,233.29
2023-04-27T06:55:34.757Z,234.13
2023-04-27T06:56:34.744Z,232.77
2023-04-27T06:57:34.757Z,229.90
2023-04-27T06:58:34.747Z,222.14
2023-04-27T06:59:34.711Z,219.53
2023-04-27T07:00:34.722Z,214.67
2023-04-27T07:01:34.752Z,217.54
2023-04-27T07:02:34.760Z,219.67
2023-04-27T07:03:34.805Z,219.65
2023-04-27T07:04:34.726Z,231.37
2023-04-27T07:05:34.678Z,225.69
2023-04-27T07:06:34.665Z,220.36
2023-04-27T07:07:34.656Z,227.19
2023-04-27T07:08:35.177Z,222.73
2023-04-27T07:09:34.656Z,224.53
2023-04-27T07:10:34.669Z,227.87
2023-04-27T07:11:34.641Z,228.65
2023-04-27T07:12:34.663Z,229.99
2023-04-27T07:13:35.325Z,229.87
2023-04-27T07:14:34.626Z,225.93
2023-04-27T07:15:34.630Z,228.38
2023-04-27T07:16:34.734Z,236.32
2023-04-27T07:17:34.630Z,228.38
2023-04-27T07:18:34.588Z,229.84
2023-04-27T07:19:34.612Z,230.95
2023-04-27T07:20:34.560Z,224.23
2023-04-27T07:21:34.549Z,226.88
2023-04-27T07:22:34.584Z,229.61
2023-04-27T07:23:34.607Z,229.94
2023-04-27T07:24:34.553Z,236.40
2023-04-27T07:25:34.547Z,238.88
2023-04-27T07:26:34.562Z,240.82
2023-04-27T07:27:34.524Z,235.40
2023-04-27T07:28:34.593Z,233.34
2023-04-27T07:29:34.653Z,238.53
2023-04-27T07:30:34.510Z,237.65
2023-04-27T07:31:34.527Z,244.07
2023-04-27T07:32:34.526Z,249.18
2023-04-27T07:33:34.491Z,245.49
2023-04-27T07:34:49.006Z,249.18
2023-04-27T07:35:35.507Z,249.37
2023-04-27T07:36:34.481Z,249.34
2023-04-27T07:37:34.496Z,247.85
2023-04-27T07:38:34.461Z,211.81
2023-04-27T07:39:34.495Z,225.98
2023-04-27T07:40:34.488Z,204.87
2023-04-27T07:41:34.483Z,221.77
2023-04-27T07:42:34.433Z,227.38
2023-04-27T07:43:34.593Z,227.61
2023-04-27T07:44:34.425Z,235.27
2023-04-27T07:45:34.443Z,230.12
2023-04-27T07:46:34.395Z,239.97
2023-04-27T07:47:34.561Z,242.38
2023-04-27T07:48:34.402Z,242.76
2023-04-27T07:49:34.387Z,247.31
2023-04-27T07:50:34.427Z,243.48
2023-04-27T07:51:34.531Z,242.15
2023-04-27T07:52:34.480Z,240.63
2023-04-27T07:53:34.558Z,235.96
2023-04-27T07:54:34.542Z,242.94
2023-04-27T07:55:34.567Z,238.80
2023-04-27T07:56:34.617Z,231.88
2023-04-27T07:57:34.688Z,232.57
2023-04-27T07:58:34.778Z,235.42
2023-04-27T07:59:34.833Z,229.06
2023-04-27T08:00:34.878Z,232.50
2023-04-27T08:01:35.063Z,230.31
2023-04-27T08:02:35.182Z,234.94
2023-04-27T08:03:35.329Z,234.34
2023-04-27T08:04:35.380Z,232.11
2023-04-27T08:05:35.368Z,233.13
2023-04-27T08:06:35.991Z,233.99
2023-04-27T08:07:38.385Z,228.96
2023-04-27T08:08:36.626Z,229.28
2023-04-27T08:09:35.300Z,229.56
2023-04-27T08:10:35.281Z,228.50
2023-04-27T08:11:35.285Z,228.63
2023-04-27T08:12:35.316Z,226.98
2023-04-27T08:13:35.644Z,231.25
2023-04-27T08:14:35.267Z,227.42
2023-04-27T08:15:35.287Z,226.52
2023-04-27T08:16:35.252Z,225.23
2023-04-27T08:17:35.332Z,224.90
2023-04-27T08:18:35.370Z,230.68
2023-04-27T08:19:35.410Z,226.37
2023-04-27T08:20:35.451Z,226.19
2023-04-27T08:21:35.520Z,223.08
2023-04-27T08:22:35.674Z,226.58
2023-04-27T08:23:36.139Z,223.93
2023-04-27T08:24:35.720Z,221.79
2023-04-27T08:25:35.768Z,222.29
2023-04-27T08:26:35.828Z,222.28
2023-04-27T08:27:35.859Z,222.09
2023-04-27T08:28:35.936Z,216.80
2023-04-27T08:29:35.980Z,222.43
2023-04-27T08:30:36.068Z,225.05
2023-04-27T08:31:36.118Z,219.61
2023-04-27T08:32:36.218Z,221.25
2023-04-27T08:33:36.625Z,220.21
2023-04-27T08:34:36.297Z,214.63
2023-04-27T08:35:36.302Z,221.75
2023-04-27T08:36:36.376Z,209.64
2023-04-27T08:37:43.953Z,211.29
2023-04-27T08:38:36.638Z,211.68
2023-04-27T08:39:36.415Z,212.03
2023-04-27T08:40:36.367Z,211.65
2023-04-27T08:41:36.399Z,213.04
2023-04-27T08:42:36.382Z,217.63
2023-04-27T08:43:36.378Z,211.95
2023-04-27T08:44:36.384Z,212.76
2023-04-27T08:45:36.362Z,214.35
2023-04-27T08:46:36.366Z,209.63
2023-04-27T08:47:43.201Z,207.02
2023-04-27T08:48:37.345Z,207.22
2023-04-27T08:49:36.360Z,207.80
2023-04-27T08:50:36.348Z,208.79
2023-04-27T08:51:36.319Z,208.66
2023-04-27T08:52:36.302Z,207.23
2023-04-27T08:53:36.651Z,220.11
2023-04-27T08:54:36.291Z,206.21
2023-04-27T08:55:36.306Z,215.04
2023-04-27T08:56:36.305Z,213.78
2023-04-27T08:57:36.260Z,216.52
2023-04-27T08:58:36.302Z,215.85
2023-04-27T08:59:36.342Z,222.71
2023-04-27T09:00:36.364Z,221.88
2023-04-27T09:01:36.394Z,232.44
2023-04-27T09:02:36.611Z,230.32
2023-04-27T09:03:36.578Z,233.72
2023-04-27T09:04:36.565Z,240.34
2023-04-27T09:05:36.524Z,238.99
2023-04-27T09:06:36.620Z,245.48
2023-04-27T09:07:36.548Z,247.99
2023-04-27T09:08:36.601Z,249.26
2023-04-27T09:09:36.609Z,243.95
2023-04-27T09:10:36.617Z,245.89
2023-04-27T09:11:36.627Z,251.62
2023-04-27T09:12:36.652Z,248.62
2023-04-27T09:13:36.724Z,251.21
2023-04-27T09:14:36.689Z,247.58
2023-04-27T09:15:36.669Z,248.01
2023-04-27T09:16:36.762Z,247.96
2023-04-27T09:17:36.777Z,245.95
2023-04-27T09:18:36.740Z,249.22
2023-04-27T09:19:36.750Z,247.97
2023-04-27T09:20:36.755Z,249.89
2023-04-27T09:21:36.722Z,248.39
2023-04-27T09:22:36.769Z,250.00
2023-04-27T09:23:36.802Z,248.79
2023-04-27T09:24:36.765Z,247.77
2023-04-27T09:25:36.815Z,248.85
2023-04-27T09:26:36.818Z,250.00
2023-04-27T09:27:36.814Z,246.00
2023-04-27T09:28:37.184Z,249.44
2023-04-27T09:29:36.934Z,244.38
2023-04-27T09:30:36.794Z,250.00
2023-04-27T09:31:36.880Z,250.00
2023-04-27T09:32:36.830Z,250.00
2023-04-27T09:33:36.876Z,245.18
2023-04-27T09:34:36.827Z,247.44
2023-04-27T09:35:36.810Z,247.37
2023-04-27T09:36:36.829Z,248.21
2023-04-27T09:37:36.838Z,248.27
2023-04-27T09:38:36.809Z,249.84
2023-04-27T09:39:37.175Z,247.25
2023-04-27T09:40:36.783Z,250.00
2023-04-27T09:41:36.782Z,246.76
2023-04-27T09:42:36.778Z,249.04
2023-04-27T09:43:36.796Z,246.05
2023-04-27T09:44:37.191Z,247.47
2023-04-27T09:45:36.789Z,247.18
2023-04-27T09:46:36.798Z,247.41
2023-04-27T09:47:36.846Z,250.00
2023-04-27T09:48:36.813Z,250.00
2023-04-27T09:49:37.157Z,247.51
2023-04-27T09:50:38.092Z,247.58
2023-04-27T09:51:36.788Z,247.94
2023-04-27T09:52:36.786Z,246.82
2023-04-27T09:53:36.762Z,249.80
2023-04-27T09:54:36.804Z,245.50
2023-04-27T09:55:36.792Z,244.83
2023-04-27T09:56:36.756Z,244.48
2023-04-27T09:57:36.753Z,247.68
2023-04-27T09:58:36.762Z,247.77
2023-04-27T09:59:37.255Z,250.00
2023-04-27T10:00:36.778Z,249.49
2023-04-27T10:01:37.523Z,248.83
2023-04-27T10:02:46.387Z,248.80
2023-04-27T10:03:37.875Z,248.89
2023-04-27T10:04:37.072Z,249.42
2023-04-27T10:05:36.814Z,251.63
2023-04-27T10:06:36.820Z,253.11
2023-04-27T10:07:36.821Z,254.76
2023-04-27T10:08:36.809Z,249.15
2023-04-27T10:09:36.792Z,249.52
2023-04-27T10:10:36.788Z,246.36
2023-04-27T10:11:36.797Z,248.91
2023-04-27T10:12:36.961Z,248.95
2023-04-27T10:13:36.912Z,248.78
2023-04-27T10:14:36.973Z,247.79
2023-04-27T10:15:37.051Z,248.86
2023-04-27T10:16:37.113Z,247.78
2023-04-27T10:17:37.282Z,249.01
2023-04-27T10:18:37.218Z,248.40
2023-04-27T10:19:37.254Z,247.22
2023-04-27T10:20:37.297Z,248.08
2023-04-27T10:21:37.339Z,248.10
2023-04-27T10:22:37.349Z,240.33
2023-04-27T10:23:37.399Z,240.99
2023-04-27T10:24:37.515Z,241.28
2023-04-27T10:25:37.532Z,245.67
2023-04-27T10:26:39.387Z,244.17
2023-04-27T10:27:37.651Z,243.21
2023-04-27T10:28:37.701Z,244.99
2023-04-27T10:29:37.792Z,247.33
2023-04-27T10:30:37.870Z,247.25
2023-04-27T10:31:37.872Z,246.43
2023-04-27T10:32:38.098Z,247.37
2023-04-27T10:33:38.028Z,248.63
2023-04-27T10:34:38.177Z,246.56
2023-04-27T10:35:38.152Z,245.80
2023-04-27T10:36:38.207Z,243.63
2023-04-27T10:37:38.242Z,243.45
2023-04-27T10:38:38.309Z,243.73
2023-04-27T10:39:47.624Z,243.49
2023-04-27T10:40:39.357Z,243.73
2023-04-27T10:41:38.365Z,243.12
2023-04-27T10:42:38.371Z,241.18
2023-04-27T10:43:38.343Z,242.46
2023-04-27T10:44:38.690Z,241.29
2023-04-27T10:45:38.329Z,235.61
2023-04-27T10:46:38.345Z,224.92
2023-04-27T10:47:38.423Z,227.37
2023-04-27T10:48:38.323Z,221.02
2023-04-27T10:49:38.304Z,216.79
2023-04-27T10:50:38.299Z,216.65
2023-04-27T10:51:38.280Z,213.65
2023-04-27T10:52:38.294Z,211.05
2023-04-27T10:53:38.308Z,200.95
2023-04-27T10:54:38.339Z,200.69
2023-04-27T10:55:38.281Z,198.08
2023-04-27T10:56:38.268Z,193.45
2023-04-27T10:57:38.262Z,183.69
2023-04-27T10:59:38.317Z,184.59
2023-04-27T11:00:38.284Z,186.92
2023-04-27T11:01:38.328Z,182.26
2023-04-27T11:02:38.315Z,153.78
2023-04-27T11:03:38.388Z,152.93
2023-04-27T11:04:38.412Z,167.29
2023-04-27T11:05:38.288Z,149.21
2023-04-27T11:06:38.254Z,154.75
2023-04-27T11:07:38.242Z,158.34
2023-04-27T11:08:38.244Z,152.41
2023-04-27T11:09:38.247Z,148.67
2023-04-27T11:10:38.212Z,147.18
2023-04-27T11:11:38.204Z,146.73
2023-04-27T11:12:38.251Z,140.96
2023-04-27T11:13:38.218Z,139.82
2023-04-27T11:14:38.177Z,139.12
2023-04-27T11:15:38.226Z,136.71
2023-04-27T11:16:38.263Z,136.74
2023-04-27T11:17:38.204Z,135.60
2023-04-27T11:18:38.131Z,135.49
2023-04-27T11:19:38.183Z,138.30
2023-04-27T11:20:38.139Z,135.54
2023-04-27T11:21:38.135Z,135.16
2023-04-27T11:22:38.137Z,133.82
2023-04-27T11:23:38.141Z,135.49
2023-04-27T11:24:38.104Z,133.68
2023-04-27T11:25:38.111Z,133.76
2023-04-27T11:26:38.120Z,136.47
2023-04-27T11:27:38.109Z,134.94
2023-04-27T11:28:38.089Z,135.31
2023-04-27T11:29:38.214Z,133.71
2023-04-27T11:30:38.083Z,135.91
2023-04-27T11:31:38.165Z,133.22
2023-04-27T11:32:38.099Z,131.83
2023-04-27T11:33:38.066Z,132.00
2023-04-27T11:34:38.232Z,128.77
2023-04-27T11:35:38.040Z,131.41
2023-04-27T11:36:38.037Z,133.33
2023-04-27T11:37:38.012Z,134.51
2023-04-27T11:38:38.095Z,132.03
2023-04-27T11:39:38.014Z,132.46
2023-04-27T11:40:38.003Z,130.65
2023-04-27T11:41:38.027Z,129.95
2023-04-27T11:42:37.998Z,131.17
2023-04-27T11:43:38.005Z,132.51
2023-04-27T11:44:37.985Z,131.47
2023-04-27T11:45:37.986Z,130.13
2023-04-27T11:46:38.269Z,128.79
2023-04-27T11:47:38.009Z,132.43
2023-04-27T11:48:37.955Z,129.22
2023-04-27T11:49:37.952Z,129.98
2023-04-27T11:50:37.970Z,130.87
2023-04-27T11:51:38.002Z,130.15
2023-04-27T11:52:37.939Z,133.68
2023-04-27T11:53:37.926Z,133.65
2023-04-27T11:54:37.934Z,131.78
2023-04-27T11:55:37.909Z,133.30
2023-04-27T11:56:37.927Z,132.06
2023-04-27T11:57:37.926Z,130.76
2023-04-27T11:58:37.972Z,132.25
2023-04-27T11:59:37.984Z,133.06
2023-04-27T12:00:38.053Z,130.10
2023-04-27T12:01:38.629Z,132.93
2023-04-27T12:02:38.203Z,127.98
2023-04-27T12:03:38.491Z,130.88
2023-04-27T12:04:38.787Z,128.32
2023-04-27T12:05:38.291Z,129.29
2023-04-27T12:06:38.296Z,129.24
2023-04-27T12:07:38.322Z,134.67
2023-04-27T12:08:38.322Z,137.86
2023-04-27T12:09:38.336Z,137.26
2023-04-27T12:10:38.381Z,133.15
2023-04-27T12:11:38.417Z,134.50
2023-04-27T12:12:38.462Z,136.64
2023-04-27T12:13:38.484Z,132.94
2023-04-27T12:14:38.550Z,133.84
2023-04-27T12:15:38.572Z,134.13
2023-04-27T12:16:38.644Z,133.58
2023-04-27T12:17:38.698Z,133.50
2023-04-27T12:18:38.664Z,134.39
2023-04-27T12:19:38.741Z,130.99
2023-04-27T12:20:38.726Z,130.96
2023-04-27T12:21:38.763Z,133.49
2023-04-27T12:22:38.817Z,133.92
2023-04-27T12:23:38.839Z,133.72
2023-04-27T12:24:38.871Z,130.83
2023-04-27T12:25:38.925Z,132.76
2023-04-27T12:26:38.939Z,133.45
2023-04-27T12:27:38.988Z,133.15
2023-04-27T12:28:39.041Z,133.18
2023-04-27T12:29:39.079Z,135.76
2023-04-27T12:30:39.162Z,137.10
2023-04-27T12:31:39.216Z,136.26
2023-04-27T12:32:39.187Z,140.75
2023-04-27T12:33:39.171Z,140.62
2023-04-27T12:34:39.202Z,146.90
2023-04-27T12:35:39.224Z,153.54
2023-04-27T12:36:39.246Z,154.21
2023-04-27T12:37:39.280Z,155.66
2023-04-27T12:38:39.281Z,159.46